createdAt,value
2016-11-17T00:00:11.954Z,17.40
2016-11-17T00:01:12.543Z,17.50
2016-11-17T00:02:12.131Z,17.40
2016-11-17T00:03:12.136Z,17.40
2016-11-17T00:04:12.137Z,17.40
2016-11-17T00:05:12.210Z,17.40
2016-11-17T00:06:12.054Z,17.40
2016-11-17T00:07:12.544Z,17.40
2016-11-17T00:08:11.615Z,17.40
2016-11-17T00:09:11.505Z,17.50
2016-11-17T00:10:11.510Z,17.50
2016-11-17T00:11:11.640Z,17.40
2016-11-17T00:12:10.996Z,17.40
2016-11-17T00:13:10.960Z,17.40
2016-11-17T00:14:10.194Z,17.50
2016-11-17T00:15:11.484Z,17.40
2016-11-17T00:16:11.431Z,17.40
2016-11-17T00:17:11.844Z,17.50
2016-11-17T00:18:09.606Z,17.50
2016-11-17T00:19:11.915Z,17.50
2016-11-17T00:20:11.923Z,17.40
2016-11-17T00:21:12.521Z,17.50
2016-11-17T00:22:11.530Z,17.50
2016-11-17T00:23:10.664Z,17.50
2016-11-17T00:24:11.975Z,17.40
2016-11-17T00:25:12.383Z,17.50
2016-11-17T00:26:09.895Z,17.50
2016-11-17T00:27:11.937Z,17.50
2016-11-17T00:28:11.924Z,17.50
2016-11-17T00:29:13.604Z,17.40
2016-11-17T00:30:12.837Z,17.50
2016-11-17T00:31:12.309Z,17.50
2016-11-17T00:32:11.877Z,17.50
2016-11-17T00:33:12.276Z,17.50
2016-11-17T00:34:11.869Z,17.50
2016-11-17T00:35:10.881Z,17.50
2016-11-17T00:36:10.249Z,17.50
2016-11-17T00:37:11.507Z,17.40
2016-11-17T00:38:12.020Z,17.50
2016-11-17T00:39:10.638Z,17.50
2016-11-17T00:40:11.991Z,17.50
2016-11-17T00:41:12.304Z,17.40
2016-11-17T00:42:11.340Z,17.50
2016-11-17T00:43:11.938Z,17.50
2016-11-17T00:44:11.894Z,17.50
2016-11-17T00:45:12.534Z,17.50
2016-11-17T00:46:09.373Z,17.50
2016-11-17T00:47:11.513Z,17.50
2016-11-17T00:48:11.387Z,17.50
2016-11-17T00:49:11.625Z,17.50
2016-11-17T00:50:13.312Z,17.50
2016-11-17T00:51:11.893Z,17.50
2016-11-17T00:52:12.793Z,17.50
2016-11-17T00:53:12.430Z,17.50
2016-11-17T00:54:11.459Z,17.50
2016-11-17T00:55:11.408Z,17.50
2016-11-17T00:56:14.059Z,17.50
2016-11-17T00:57:11.436Z,17.50
2016-11-17T00:58:11.998Z,17.50
2016-11-17T00:59:12.356Z,17.50
2016-11-17T01:00:11.717Z,17.50
2016-11-17T01:01:11.675Z,17.50
2016-11-17T01:02:11.611Z,17.50
2016-11-17T01:03:12.450Z,17.50
2016-11-17T01:04:12.386Z,17.50
2016-11-17T01:05:12.227Z,17.50
2016-11-17T01:06:11.325Z,17.50
2016-11-17T01:07:10.440Z,17.50
2016-11-17T01:08:11.597Z,17.50
2016-11-17T01:09:12.022Z,17.50
2016-11-17T01:10:09.700Z,17.50
2016-11-17T01:11:11.239Z,17.50
2016-11-17T01:12:12.869Z,17.50
2016-11-17T01:13:12.802Z,17.50
2016-11-17T01:14:09.000Z,17.50
2016-11-17T01:15:12.979Z,17.50
2016-11-17T01:16:12.473Z,17.50
2016-11-17T01:17:13.695Z,17.50
2016-11-17T01:18:10.208Z,17.50
2016-11-17T01:19:12.408Z,17.50
2016-11-17T01:20:13.049Z,17.50
2016-11-17T01:21:11.497Z,17.50
2016-11-17T01:22:14.443Z,17.50
2016-11-17T01:23:14.407Z,17.50
2016-11-17T01:24:12.869Z,17.50
2016-11-17T01:25:15.920Z,17.50
2016-11-17T01:26:13.367Z,17.50
2016-11-17T01:27:13.491Z,17.50
2016-11-17T01:28:11.582Z,17.50
2016-11-17T01:29:09.821Z,17.50
2016-11-17T01:30:11.369Z,17.50
2016-11-17T01:31:13.396Z,17.50
2016-11-17T01:32:12.710Z,17.50
2016-11-17T01:33:12.460Z,17.50
2016-11-17T01:34:12.959Z,17.50
2016-11-17T01:35:11.981Z,17.50
2016-11-17T01:36:12.119Z,17.40
2016-11-17T01:37:12.429Z,17.50
2016-11-17T01:38:11.916Z,17.50
2016-11-17T01:39:13.058Z,17.50
2016-11-17T01:40:09.678Z,17.50
2016-11-17T01:41:11.537Z,17.50
2016-11-17T01:42:11.608Z,17.50
2016-11-17T01:43:14.151Z,17.50
2016-11-17T01:44:13.154Z,17.50
2016-11-17T01:45:13.732Z,17.50
2016-11-17T01:46:13.439Z,17.50
2016-11-17T01:47:13.243Z,17.50
2016-11-17T01:48:12.721Z,17.50
2016-11-17T01:49:13.268Z,17.50
2016-11-17T01:50:13.698Z,17.40
2016-11-17T01:51:12.930Z,17.50
2016-11-17T01:52:12.038Z,17.50
2016-11-17T01:53:12.598Z,17.50
2016-11-17T01:54:12.511Z,17.50
2016-11-17T01:55:11.802Z,17.50
2016-11-17T01:56:12.484Z,17.50
2016-11-17T01:57:13.540Z,17.50
2016-11-17T01:58:11.721Z,17.50
2016-11-17T01:59:14.970Z,17.50
2016-11-17T02:00:12.587Z,17.50
2016-11-17T02:01:13.212Z,17.50
2016-11-17T02:02:12.490Z,17.50
2016-11-17T02:03:12.530Z,17.50
2016-11-17T02:04:12.072Z,17.50
2016-11-17T02:05:13.084Z,17.50
2016-11-17T02:06:29.079Z,17.50
2016-11-17T02:07:12.136Z,17.50
2016-11-17T02:08:13.667Z,17.50
2016-11-17T02:09:12.791Z,17.50
2016-11-17T02:10:12.308Z,17.50
2016-11-17T02:11:12.339Z,17.50
2016-11-17T02:12:11.801Z,17.50
2016-11-17T02:13:14.445Z,17.50
2016-11-17T02:14:12.140Z,17.50
2016-11-17T02:15:09.662Z,17.50
2016-11-17T02:16:13.385Z,17.50
2016-11-17T02:17:13.047Z,17.50
2016-11-17T02:18:12.496Z,17.50
2016-11-17T02:19:09.833Z,17.50
2016-11-17T02:20:11.347Z,17.50
2016-11-17T02:21:12.044Z,17.50
2016-11-17T02:22:11.007Z,17.50
2016-11-17T02:23:09.514Z,17.50
2016-11-17T02:24:11.768Z,17.50
2016-11-17T02:25:12.801Z,17.50
2016-11-17T02:26:11.746Z,17.50
2016-11-17T02:27:09.987Z,17.50
2016-11-17T02:28:13.997Z,17.50
2016-11-17T02:29:11.855Z,17.50
2016-11-17T02:30:12.592Z,17.50
2016-11-17T02:31:13.477Z,17.50
2016-11-17T02:32:11.407Z,17.50
2016-11-17T02:33:12.756Z,17.50
2016-11-17T02:34:12.445Z,17.50
2016-11-17T02:35:13.073Z,17.50
2016-11-17T02:36:12.045Z,17.50
2016-11-17T02:37:13.397Z,17.50
2016-11-17T02:38:12.078Z,17.50
2016-11-17T02:39:12.603Z,17.50
2016-11-17T02:40:14.414Z,17.50
2016-11-17T02:41:12.171Z,17.50
2016-11-17T02:42:14.491Z,17.50
2016-11-17T02:43:12.844Z,17.50
2016-11-17T02:44:12.527Z,17.50
2016-11-17T02:45:13.322Z,17.50
2016-11-17T02:46:11.241Z,17.50
2016-11-17T02:47:12.465Z,17.50
2016-11-17T02:48:14.876Z,17.50
2016-11-17T02:49:11.905Z,17.50
2016-11-17T02:50:12.302Z,17.50
2016-11-17T02:51:11.332Z,17.50
2016-11-17T02:52:12.919Z,17.50
2016-11-17T02:53:11.796Z,17.50
2016-11-17T02:54:12.022Z,17.50
2016-11-17T02:55:08.857Z,17.50
2016-11-17T02:56:11.095Z,17.50
2016-11-17T02:57:11.659Z,17.50
2016-11-17T02:58:09.293Z,17.50
2016-11-17T02:59:11.794Z,17.50
2016-11-17T03:00:14.352Z,17.50
2016-11-17T03:01:11.979Z,17.50
2016-11-17T03:02:12.318Z,17.50
2016-11-17T03:03:11.920Z,17.50
2016-11-17T03:04:11.864Z,17.50
2016-11-17T03:05:12.376Z,17.50
2016-11-17T03:06:12.977Z,17.50
2016-11-17T03:07:12.780Z,17.50
2016-11-17T03:08:11.651Z,17.50
2016-11-17T03:09:12.492Z,17.50
2016-11-17T03:10:11.530Z,17.50
2016-11-17T03:11:12.021Z,17.50
2016-11-17T03:12:11.984Z,17.50
2016-11-17T03:13:12.111Z,17.50
2016-11-17T03:14:12.018Z,17.50
2016-11-17T03:15:11.901Z,17.50
2016-11-17T03:16:12.387Z,17.50
2016-11-17T03:17:12.599Z,17.50
2016-11-17T03:18:12.058Z,17.50
2016-11-17T03:19:11.009Z,17.50
2016-11-17T03:20:09.689Z,17.50
2016-11-17T03:21:12.145Z,17.50
2016-11-17T03:22:12.357Z,17.50
2016-11-17T03:23:13.101Z,17.50
2016-11-17T03:24:11.631Z,17.50
2016-11-17T03:25:12.348Z,17.50
2016-11-17T03:26:11.777Z,17.50
2016-11-17T03:27:13.453Z,17.50
2016-11-17T03:28:12.785Z,17.50
2016-11-17T03:29:11.796Z,17.50
2016-11-17T03:30:13.402Z,17.50
2016-11-17T03:31:09.144Z,17.50
2016-11-17T03:32:12.072Z,17.50
2016-11-17T03:33:11.704Z,17.50
2016-11-17T03:34:11.925Z,17.50
2016-11-17T03:35:11.452Z,17.50
2016-11-17T03:36:12.066Z,17.50
2016-11-17T03:37:13.548Z,17.50
2016-11-17T03:38:11.549Z,17.50
2016-11-17T03:39:11.573Z,17.50
2016-11-17T03:40:11.514Z,17.50
2016-11-17T03:41:08.618Z,17.50
2016-11-17T03:42:11.946Z,17.50
2016-11-17T03:43:12.933Z,17.50
2016-11-17T03:44:11.735Z,17.50
2016-11-17T03:45:12.518Z,17.50
2016-11-17T03:46:12.277Z,17.50
2016-11-17T03:47:10.197Z,17.50
2016-11-17T03:48:12.757Z,17.50
2016-11-17T03:49:12.411Z,17.50
2016-11-17T03:50:12.187Z,17.50
2016-11-17T03:51:11.941Z,17.50
2016-11-17T03:52:11.848Z,17.50
2016-11-17T03:53:12.343Z,17.50
2016-11-17T03:54:11.330Z,17.50
2016-11-17T03:55:12.058Z,17.50
2016-11-17T03:56:11.850Z,17.50
2016-11-17T03:57:12.460Z,17.50
2016-11-17T03:58:11.057Z,17.50
2016-11-17T03:59:12.298Z,17.50
2016-11-17T04:00:11.371Z,17.50
2016-11-17T04:01:12.067Z,17.50
2016-11-17T04:02:11.023Z,17.50
2016-11-17T04:03:11.524Z,17.50
2016-11-17T04:04:12.467Z,17.50
2016-11-17T04:05:12.101Z,17.50
2016-11-17T04:06:11.492Z,17.50
2016-11-17T04:07:12.134Z,17.50
2016-11-17T04:08:12.531Z,17.50
2016-11-17T04:09:12.585Z,17.50
2016-11-17T04:10:12.422Z,17.50
2016-11-17T04:11:13.186Z,17.50
2016-11-17T04:12:11.260Z,17.50
2016-11-17T04:13:12.432Z,17.50
2016-11-17T04:14:11.901Z,17.50
2016-11-17T04:15:12.321Z,17.50
2016-11-17T04:16:12.265Z,17.50
2016-11-17T04:17:14.332Z,17.50
2016-11-17T04:18:08.495Z,17.50
2016-11-17T04:19:12.194Z,17.50
2016-11-17T04:20:11.179Z,17.50
2016-11-17T04:21:12.930Z,17.50
2016-11-17T04:22:13.041Z,17.50
2016-11-17T04:23:11.545Z,17.50
2016-11-17T04:24:12.660Z,17.50
2016-11-17T04:25:11.517Z,17.50
2016-11-17T04:26:12.127Z,17.50
2016-11-17T04:27:12.331Z,17.50
2016-11-17T04:28:11.923Z,17.50
2016-11-17T04:29:12.970Z,17.50
2016-11-17T04:30:09.650Z,17.50
2016-11-17T04:31:13.377Z,17.50
2016-11-17T04:32:12.162Z,17.50
2016-11-17T04:33:13.025Z,17.50
2016-11-17T04:34:11.082Z,17.50
2016-11-17T04:35:11.658Z,17.50
2016-11-17T04:36:12.193Z,17.50
2016-11-17T04:37:11.201Z,17.50
2016-11-17T04:38:12.416Z,17.50
2016-11-17T04:39:11.723Z,17.50
2016-11-17T04:40:12.392Z,17.50
2016-11-17T04:41:11.275Z,17.50
2016-11-17T04:42:12.496Z,17.50
2016-11-17T04:43:13.185Z,17.50
2016-11-17T04:44:08.496Z,17.50
2016-11-17T04:45:11.684Z,17.50
2016-11-17T04:46:12.686Z,17.50
2016-11-17T04:47:11.502Z,17.50
2016-11-17T04:48:12.420Z,17.50
2016-11-17T04:49:11.943Z,17.50
2016-11-17T04:50:14.727Z,17.50
2016-11-17T04:51:12.668Z,17.50
2016-11-17T04:52:11.523Z,17.50
2016-11-17T04:53:11.903Z,17.50
2016-11-17T04:54:10.631Z,17.50
2016-11-17T04:55:12.381Z,17.50
2016-11-17T04:56:12.955Z,17.50
2016-11-17T04:57:14.241Z,17.50
2016-11-17T04:58:12.207Z,17.50
2016-11-17T04:59:12.066Z,17.50
2016-11-17T05:00:11.644Z,17.50
2016-11-17T05:01:12.511Z,17.50
2016-11-17T05:02:12.401Z,17.50
2016-11-17T05:03:14.034Z,17.50
2016-11-17T05:04:12.266Z,17.50
2016-11-17T05:05:12.030Z,17.50
2016-11-17T05:06:14.384Z,17.50
2016-11-17T05:07:09.323Z,17.50
2016-11-17T05:08:12.113Z,17.50
2016-11-17T05:09:11.660Z,17.50
2016-11-17T05:10:11.709Z,17.50
2016-11-17T05:11:11.551Z,17.50
2016-11-17T05:12:11.612Z,17.50
2016-11-17T05:13:11.479Z,17.50
2016-11-17T05:14:11.531Z,17.50
2016-11-17T05:15:10.203Z,17.50
2016-11-17T05:16:12.023Z,17.50
2016-11-17T05:17:11.655Z,17.50
2016-11-17T05:18:13.245Z,17.50
2016-11-17T05:19:11.372Z,17.50
2016-11-17T05:20:11.923Z,17.50
2016-11-17T05:21:11.928Z,17.50
2016-11-17T05:22:12.477Z,17.50
2016-11-17T05:23:11.496Z,17.50
2016-11-17T05:24:12.703Z,17.50
2016-11-17T05:25:14.695Z,17.50
2016-11-17T05:26:09.815Z,17.50
2016-11-17T05:27:11.157Z,17.50
2016-11-17T05:28:12.760Z,17.50
2016-11-17T05:29:10.210Z,17.50
2016-11-17T05:30:12.215Z,17.50
2016-11-17T05:31:13.264Z,17.50
2016-11-17T05:32:12.209Z,17.50
2016-11-17T05:33:09.661Z,17.50
2016-11-17T05:34:12.447Z,17.50
2016-11-17T05:35:13.069Z,17.50
2016-11-17T05:36:09.899Z,17.50
2016-11-17T05:37:12.092Z,17.50
2016-11-17T05:38:12.712Z,17.50
2016-11-17T05:39:09.578Z,17.50
2016-11-17T05:40:09.560Z,17.50
2016-11-17T05:41:10.965Z,17.50
2016-11-17T05:42:12.934Z,17.50
2016-11-17T05:43:12.666Z,17.50
2016-11-17T05:44:13.325Z,17.50
2016-11-17T05:45:09.135Z,17.50
2016-11-17T05:46:09.757Z,17.50
2016-11-17T05:47:11.363Z,17.50
2016-11-17T05:48:12.184Z,17.50
2016-11-17T05:49:11.214Z,17.50
2016-11-17T05:50:12.529Z,17.50
2016-11-17T05:51:11.515Z,17.50
2016-11-17T05:52:13.874Z,17.50
2016-11-17T05:53:13.506Z,17.50
2016-11-17T05:54:13.146Z,17.50
2016-11-17T05:55:09.448Z,17.50
2016-11-17T05:56:12.601Z,17.50
2016-11-17T05:57:12.383Z,17.50
2016-11-17T05:58:11.420Z,17.50
2016-11-17T05:59:13.499Z,17.50
2016-11-17T06:00:11.394Z,17.50
2016-11-17T06:01:12.053Z,17.50
2016-11-17T06:02:12.190Z,17.50
2016-11-17T06:03:11.264Z,17.50
2016-11-17T06:04:11.221Z,17.50
2016-11-17T06:05:11.226Z,17.50
2016-11-17T06:06:11.180Z,17.50
2016-11-17T06:07:12.584Z,17.50
2016-11-17T06:08:15.107Z,17.50
2016-11-17T06:09:12.961Z,17.50
2016-11-17T06:10:12.788Z,17.50
2016-11-17T06:11:12.299Z,17.50
2016-11-17T06:12:11.816Z,17.50
2016-11-17T06:13:12.354Z,17.50
2016-11-17T06:14:11.438Z,17.50
2016-11-17T06:15:12.118Z,17.50
2016-11-17T06:16:11.416Z,17.50
2016-11-17T06:17:11.401Z,17.50
2016-11-17T06:18:11.959Z,17.50
2016-11-17T06:19:11.840Z,17.50
2016-11-17T06:20:12.546Z,17.50
2016-11-17T06:21:12.120Z,17.50
2016-11-17T06:22:11.607Z,17.50
2016-11-17T06:23:11.646Z,17.50
2016-11-17T06:24:11.568Z,17.50
2016-11-17T06:25:12.857Z,17.50
2016-11-17T06:26:13.497Z,17.50
2016-11-17T06:27:11.865Z,17.50
2016-11-17T06:28:13.489Z,17.50
2016-11-17T06:29:11.411Z,17.50
2016-11-17T06:30:13.227Z,17.50
2016-11-17T06:31:11.968Z,17.50
2016-11-17T06:32:12.658Z,17.50
2016-11-17T06:33:12.109Z,17.50
2016-11-17T06:34:11.127Z,17.50
2016-11-17T06:35:11.816Z,17.50
2016-11-17T06:36:12.559Z,17.50
2016-11-17T06:37:12.404Z,17.50
2016-11-17T06:38:12.731Z,17.50
2016-11-17T06:39:12.497Z,17.50
2016-11-17T06:40:11.411Z,17.50
2016-11-17T06:41:12.165Z,17.50
2016-11-17T06:42:09.879Z,17.50
2016-11-17T06:43:13.675Z,17.50
2016-11-17T06:44:11.668Z,17.50
2016-11-17T06:45:11.603Z,17.50
2016-11-17T06:46:12.527Z,17.50
2016-11-17T06:47:11.528Z,17.50
2016-11-17T06:48:12.202Z,17.50
2016-11-17T06:49:11.898Z,17.50
2016-11-17T06:50:13.525Z,17.50
2016-11-17T06:51:11.576Z,17.50
2016-11-17T06:52:12.057Z,17.60
2016-11-17T06:53:12.138Z,17.50
2016-11-17T06:54:12.191Z,17.50
2016-11-17T06:55:11.784Z,17.50
2016-11-17T06:56:12.388Z,17.50
2016-11-17T06:57:11.442Z,17.50
2016-11-17T06:58:12.278Z,17.50
2016-11-17T06:59:11.656Z,17.60
2016-11-17T07:00:11.560Z,17.50
2016-11-17T07:01:11.413Z,17.60
2016-11-17T07:02:11.541Z,17.50
2016-11-17T07:03:13.357Z,17.60
2016-11-17T07:04:09.515Z,17.60
2016-11-17T07:05:09.801Z,17.60
2016-11-17T07:06:11.591Z,17.50
2016-11-17T07:07:12.149Z,17.50
2016-11-17T07:08:11.133Z,17.50
2016-11-17T07:09:11.231Z,17.60
2016-11-17T07:10:11.161Z,17.60
2016-11-17T07:11:11.800Z,17.60
2016-11-17T07:12:11.684Z,17.60
2016-11-17T07:13:11.687Z,17.60
2016-11-17T07:14:13.497Z,17.60
2016-11-17T07:15:11.782Z,17.60
2016-11-17T07:16:11.906Z,17.50
2016-11-17T07:17:12.103Z,17.10
2016-11-17T07:18:08.856Z,16.80
2016-11-17T07:19:13.151Z,16.40
2016-11-17T07:20:11.599Z,16.20
2016-11-17T07:21:12.512Z,16.00
2016-11-17T07:22:12.178Z,15.80
2016-11-17T07:23:14.219Z,15.60
2016-11-17T07:24:12.980Z,15.50
2016-11-17T07:25:11.872Z,15.60
2016-11-17T07:26:12.572Z,15.80
2016-11-17T07:27:12.405Z,16.00
2016-11-17T07:28:12.784Z,16.20
2016-11-17T07:29:11.724Z,16.30
2016-11-17T07:30:13.504Z,16.50
2016-11-17T07:31:13.299Z,16.60
2016-11-17T07:32:12.130Z,16.80
2016-11-17T07:33:11.533Z,16.90
2016-11-17T07:34:11.851Z,17.00
2016-11-17T07:35:10.432Z,17.10
2016-11-17T07:36:12.645Z,17.10
2016-11-17T07:37:12.866Z,17.20
2016-11-17T07:38:11.847Z,17.20
2016-11-17T07:39:13.037Z,17.30
2016-11-17T07:40:12.007Z,17.30
2016-11-17T07:41:13.036Z,17.30
2016-11-17T07:42:10.914Z,17.40
2016-11-17T07:43:13.365Z,17.40
2016-11-17T07:44:12.164Z,17.40
2016-11-17T07:45:11.973Z,17.50
2016-11-17T07:46:11.414Z,17.50
2016-11-17T07:47:11.376Z,17.50
2016-11-17T07:48:11.925Z,17.50
2016-11-17T07:49:12.435Z,17.50
2016-11-17T07:50:11.474Z,17.40
2016-11-17T07:51:13.363Z,17.40
2016-11-17T07:52:08.504Z,17.40
2016-11-17T07:53:11.498Z,17.40
2016-11-17T07:54:12.067Z,17.40
2016-11-17T07:55:11.148Z,17.40
2016-11-17T07:56:11.705Z,17.40
2016-11-17T07:57:10.401Z,17.40
2016-11-17T07:58:12.266Z,17.40
2016-11-17T07:59:12.166Z,17.40
2016-11-17T08:00:11.173Z,17.40
2016-11-17T08:01:11.926Z,17.40
2016-11-17T08:02:11.886Z,17.40
2016-11-17T08:03:11.949Z,17.50
2016-11-17T08:04:11.718Z,17.50
2016-11-17T08:05:12.353Z,17.50
2016-11-17T08:06:11.367Z,17.60
2016-11-17T08:07:11.489Z,17.60
2016-11-17T08:08:12.267Z,17.70
2016-11-17T08:09:11.837Z,17.70
2016-11-17T08:10:12.322Z,17.80
2016-11-17T08:11:11.913Z,17.80
2016-11-17T08:12:09.602Z,17.80
2016-11-17T08:13:12.744Z,17.80
2016-11-17T08:14:11.610Z,17.80
2016-11-17T08:15:11.672Z,17.70
2016-11-17T08:16:11.519Z,17.70
2016-11-17T08:17:12.221Z,17.60
2016-11-17T08:18:11.270Z,17.60
2016-11-17T08:19:11.736Z,17.60
2016-11-17T08:20:11.707Z,17.60
2016-11-17T08:21:11.679Z,17.60
2016-11-17T08:22:13.467Z,17.60
2016-11-17T08:23:11.760Z,17.60
2016-11-17T08:24:12.570Z,17.60
2016-11-17T08:25:11.531Z,17.60
2016-11-17T08:26:11.912Z,17.60
2016-11-17T08:27:12.230Z,17.60
2016-11-17T08:28:11.331Z,17.60
2016-11-17T08:29:11.784Z,17.60
2016-11-17T08:30:11.956Z,17.60
2016-11-17T08:31:11.917Z,17.60
2016-11-17T08:32:10.273Z,17.60
2016-11-17T08:33:12.251Z,17.60
2016-11-17T08:34:11.260Z,17.60
2016-11-17T08:35:11.216Z,17.60
2016-11-17T08:36:14.267Z,17.70
2016-11-17T08:37:11.189Z,17.60
2016-11-17T08:38:11.576Z,17.60
2016-11-17T08:39:11.635Z,17.60
2016-11-17T08:40:11.616Z,17.60
2016-11-17T08:41:12.369Z,17.60
2016-11-17T08:42:11.414Z,17.60
2016-11-17T08:43:12.027Z,17.60
2016-11-17T08:44:09.461Z,17.60
2016-11-17T08:45:12.568Z,17.60
2016-11-17T08:46:11.977Z,17.60
2016-11-17T08:47:09.472Z,17.60
2016-11-17T08:48:12.338Z,17.70
2016-11-17T08:49:11.882Z,17.60
2016-11-17T08:50:11.972Z,17.60
2016-11-17T08:51:12.243Z,17.70
2016-11-17T08:52:11.804Z,17.60
2016-11-17T08:53:13.272Z,17.70
2016-11-17T08:54:11.793Z,17.60
2016-11-17T08:55:12.250Z,17.60
2016-11-17T08:56:11.302Z,17.60
2016-11-17T08:57:13.853Z,17.70
2016-11-17T08:58:11.723Z,17.70
2016-11-17T08:59:14.127Z,17.70
2016-11-17T09:00:11.213Z,17.60
2016-11-17T09:01:08.953Z,17.70
2016-11-17T09:02:11.501Z,17.70
2016-11-17T09:03:11.954Z,17.60
2016-11-17T09:04:12.470Z,17.60
2016-11-17T09:05:11.923Z,17.70
2016-11-17T09:06:11.966Z,17.60
2016-11-17T09:07:10.945Z,17.60
2016-11-17T09:08:14.793Z,17.60
2016-11-17T09:09:11.664Z,17.70
2016-11-17T09:10:12.140Z,17.60
2016-11-17T09:11:11.574Z,17.60
2016-11-17T09:12:11.559Z,17.60
2016-11-17T09:13:12.165Z,17.70
2016-11-17T09:14:11.146Z,17.60
2016-11-17T09:15:11.682Z,17.70
2016-11-17T09:16:13.282Z,17.60
2016-11-17T09:17:09.671Z,17.70
2016-11-17T09:18:11.314Z,17.60
2016-11-17T09:19:11.211Z,17.70
2016-11-17T09:20:11.695Z,17.60
2016-11-17T09:21:09.808Z,17.70
2016-11-17T09:22:11.652Z,17.70
2016-11-17T09:23:13.366Z,17.70
2016-11-17T09:24:11.476Z,17.70
2016-11-17T09:25:11.468Z,17.70
2016-11-17T09:26:12.073Z,17.70
2016-11-17T09:27:10.980Z,17.70
2016-11-17T09:28:12.432Z,17.70
2016-11-17T09:29:12.034Z,17.60
2016-11-17T09:30:09.475Z,17.70
2016-11-17T09:31:12.359Z,17.70
2016-11-17T09:32:12.190Z,17.70
2016-11-17T09:33:11.808Z,17.70
2016-11-17T09:34:11.821Z,17.60
2016-11-17T09:35:11.693Z,17.70
2016-11-17T09:36:12.181Z,17.70
2016-11-17T09:37:13.651Z,17.70
2016-11-17T09:38:12.163Z,17.70
2016-11-17T09:39:12.495Z,17.70
2016-11-17T09:40:12.271Z,17.70
2016-11-17T09:41:13.036Z,17.70
2016-11-17T09:42:12.695Z,17.70
2016-11-17T09:43:14.045Z,17.70
2016-11-17T09:44:12.045Z,17.70
2016-11-17T09:45:11.112Z,17.70
2016-11-17T09:46:11.177Z,17.70
2016-11-17T09:47:11.779Z,17.70
2016-11-17T09:48:11.732Z,17.70
2016-11-17T09:49:11.142Z,17.60
2016-11-17T09:50:10.932Z,17.70
2016-11-17T09:51:09.377Z,17.70
2016-11-17T09:52:11.673Z,17.70
2016-11-17T09:53:12.883Z,17.70
2016-11-17T09:54:11.062Z,17.70
2016-11-17T09:55:12.888Z,17.70
2016-11-17T09:56:12.607Z,17.70
2016-11-17T09:57:09.831Z,17.70
2016-11-17T09:58:12.107Z,17.70
2016-11-17T09:59:12.099Z,17.70
2016-11-17T10:00:11.739Z,17.70
2016-11-17T10:01:12.179Z,17.80
2016-11-17T10:02:12.901Z,17.80
2016-11-17T10:03:12.410Z,17.80
2016-11-17T10:04:09.319Z,17.80
2016-11-17T10:05:11.633Z,17.80
2016-11-17T10:06:11.602Z,17.80
2016-11-17T10:07:11.272Z,17.80
2016-11-17T10:08:12.923Z,17.80
2016-11-17T10:09:12.393Z,17.80
2016-11-17T10:10:11.482Z,17.80
2016-11-17T10:11:12.073Z,17.80
2016-11-17T10:12:11.780Z,17.80
2016-11-17T10:13:12.072Z,17.80
2016-11-17T10:14:11.810Z,17.80
2016-11-17T10:15:11.634Z,17.80
2016-11-17T10:16:11.644Z,17.80
2016-11-17T10:17:11.823Z,17.80
2016-11-17T10:18:11.639Z,17.90
2016-11-17T10:19:10.194Z,17.90
2016-11-17T10:20:12.052Z,17.90
2016-11-17T10:21:11.820Z,17.90
2016-11-17T10:22:11.753Z,17.80
2016-11-17T10:23:10.194Z,17.90
2016-11-17T10:24:11.642Z,17.80
2016-11-17T10:25:13.252Z,17.80
2016-11-17T10:26:11.283Z,17.80
2016-11-17T10:27:11.974Z,17.80
2016-11-17T10:28:12.564Z,17.80
2016-11-17T10:29:12.431Z,17.80
2016-11-17T10:30:11.348Z,17.80
2016-11-17T10:31:11.894Z,17.80
2016-11-17T10:32:11.755Z,17.80
2016-11-17T10:33:12.390Z,17.80
2016-11-17T10:34:11.681Z,17.80
2016-11-17T10:35:12.372Z,17.80
2016-11-17T10:36:11.673Z,17.80
2016-11-17T10:37:11.644Z,17.80
2016-11-17T10:38:11.607Z,17.80
2016-11-17T10:39:11.951Z,17.80
2016-11-17T10:40:12.464Z,17.80
2016-11-17T10:41:11.541Z,17.80
2016-11-17T10:42:11.911Z,17.80
2016-11-17T10:43:11.864Z,17.80
2016-11-17T10:44:11.795Z,17.80
2016-11-17T10:45:11.627Z,17.80
2016-11-17T10:46:11.224Z,17.80
2016-11-17T10:47:11.272Z,17.80
2016-11-17T10:48:11.758Z,17.80
2016-11-17T10:49:12.840Z,17.80
2016-11-17T10:50:12.961Z,17.80
2016-11-17T10:51:11.858Z,17.70
2016-11-17T10:52:13.196Z,17.80
2016-11-17T10:53:12.886Z,17.80
2016-11-17T10:54:13.294Z,17.70
2016-11-17T10:55:11.393Z,17.80
2016-11-17T10:56:11.363Z,17.80
2016-11-17T10:57:11.298Z,17.70
2016-11-17T10:58:11.873Z,17.80
2016-11-17T10:59:10.553Z,17.80
2016-11-17T11:00:12.439Z,17.70
2016-11-17T11:01:11.755Z,17.80
2016-11-17T11:02:12.313Z,17.70
2016-11-17T11:03:11.949Z,17.70
2016-11-17T11:04:09.551Z,17.70
2016-11-17T11:05:11.078Z,17.70
2016-11-17T11:06:11.649Z,17.70
2016-11-17T11:07:11.505Z,17.70
2016-11-17T11:08:09.742Z,17.80
2016-11-17T11:09:11.870Z,17.70
2016-11-17T11:10:11.865Z,17.70
2016-11-17T11:11:11.801Z,17.80
2016-11-17T11:12:11.812Z,17.70
2016-11-17T11:13:11.758Z,17.70
2016-11-17T11:14:11.758Z,17.70
2016-11-17T11:15:11.639Z,17.70
2016-11-17T11:16:12.014Z,17.70
2016-11-17T11:17:11.241Z,17.70
2016-11-17T11:18:11.906Z,17.70
2016-11-17T11:19:11.758Z,17.70
2016-11-17T11:20:12.090Z,17.70
2016-11-17T11:21:11.005Z,17.70
2016-11-17T11:22:12.633Z,17.70
2016-11-17T11:23:12.133Z,17.70
2016-11-17T11:24:12.555Z,17.80
2016-11-17T11:25:09.431Z,17.80
2016-11-17T11:26:13.093Z,17.80
2016-11-17T11:27:11.004Z,17.70
2016-11-17T11:28:14.574Z,17.70
2016-11-17T11:29:12.140Z,17.80
2016-11-17T11:30:11.126Z,17.80
2016-11-17T11:31:11.832Z,17.70
2016-11-17T11:32:11.795Z,17.80
2016-11-17T11:33:12.537Z,17.80
2016-11-17T11:34:11.543Z,17.70
2016-11-17T11:35:12.274Z,17.80
2016-11-17T11:36:11.915Z,17.70
2016-11-17T11:37:12.392Z,17.70
2016-11-17T11:38:11.251Z,17.70
2016-11-17T11:39:11.190Z,17.70
2016-11-17T11:40:12.833Z,17.70
2016-11-17T11:41:12.414Z,17.70
2016-11-17T11:42:11.842Z,17.70
2016-11-17T11:43:11.863Z,17.70
2016-11-17T11:44:12.584Z,17.70
2016-11-17T11:45:11.472Z,17.80
2016-11-17T11:46:11.333Z,17.70
2016-11-17T11:47:13.038Z,17.80
2016-11-17T11:48:10.975Z,17.70
2016-11-17T11:49:10.903Z,17.70
2016-11-17T11:50:11.736Z,17.70
2016-11-17T11:51:11.956Z,17.80
2016-11-17T11:52:11.836Z,17.70
2016-11-17T11:53:11.803Z,17.80
2016-11-17T11:54:10.442Z,17.70
2016-11-17T11:55:11.735Z,17.70
2016-11-17T11:56:12.348Z,17.80
2016-11-17T11:57:11.937Z,17.80
2016-11-17T11:58:12.297Z,17.80
2016-11-17T11:59:11.535Z,17.80
2016-11-17T12:00:12.123Z,17.80
2016-11-17T12:01:11.120Z,17.80
2016-11-17T12:02:12.787Z,17.80
2016-11-17T12:03:11.615Z,17.80
2016-11-17T12:04:11.244Z,17.80
2016-11-17T12:05:09.452Z,17.80
2016-11-17T12:06:11.078Z,17.70
2016-11-17T12:07:11.579Z,17.70
2016-11-17T12:08:08.704Z,17.70
2016-11-17T12:09:10.995Z,17.70
2016-11-17T12:10:11.820Z,17.70
2016-11-17T12:11:11.804Z,17.70
2016-11-17T12:12:12.121Z,17.80
2016-11-17T12:13:11.202Z,17.70
2016-11-17T12:14:11.742Z,17.70
2016-11-17T12:15:11.669Z,17.70
2016-11-17T12:16:11.745Z,17.70
2016-11-17T12:17:12.604Z,17.80
2016-11-17T12:18:11.031Z,17.70
2016-11-17T12:19:11.901Z,17.70
2016-11-17T12:20:12.523Z,17.80
2016-11-17T12:21:11.792Z,17.70
2016-11-17T12:22:12.392Z,17.70
2016-11-17T12:23:11.505Z,17.70
2016-11-17T12:24:11.513Z,17.70
2016-11-17T12:25:12.915Z,17.70
2016-11-17T12:26:12.354Z,17.70
2016-11-17T12:27:12.250Z,17.70
2016-11-17T12:28:12.004Z,17.70
2016-11-17T12:29:15.972Z,17.70
2016-11-17T12:30:11.827Z,17.70
2016-11-17T12:31:12.256Z,17.80
2016-11-17T12:32:11.678Z,17.80
2016-11-17T12:33:12.125Z,17.80
2016-11-17T12:34:11.203Z,17.80
2016-11-17T12:35:11.307Z,17.80
2016-11-17T12:36:12.097Z,17.80
2016-11-17T12:37:11.165Z,17.80
2016-11-17T12:38:11.160Z,17.80
2016-11-17T12:39:11.269Z,17.80
2016-11-17T12:40:11.909Z,17.80
2016-11-17T12:41:12.350Z,17.80
2016-11-17T12:42:11.415Z,17.80
2016-11-17T12:43:11.836Z,17.80
2016-11-17T12:44:12.153Z,17.80
2016-11-17T12:45:11.215Z,17.80
2016-11-17T12:46:11.239Z,17.70
2016-11-17T12:47:12.076Z,17.80
2016-11-17T12:48:11.242Z,17.80
2016-11-17T12:49:11.795Z,17.70
2016-11-17T12:50:12.445Z,17.80
2016-11-17T12:51:12.066Z,17.80
2016-11-17T12:52:11.031Z,17.80